Time;durP1;ratioP1;P1;durP2;ratioP2;P2;SDS_P1;SDS_P2;PMS_P1;PMS_P2;Temp;Humidity;BMP_temperature;BMP_pressure;BME280_temperature;BME280_humidity;BME280_pressure;Samples;Min_cycle;Max_cycle;Signal;HPM_P1;HPM_P2
2022/04/06 00:00:13;;;;;;;14.73;10.80;;;12.20;99.90;;;;;;5051451;28;20548;-67
2022/04/06 00:02:40;;;;;;;12.70;10.20;;;12.10;99.90;;;;;;5050097;28;20432;-67
2022/04/06 00:05:09;;;;;;;15.90;10.93;;;12.10;99.90;;;;;;5051970;28;20452;-67
2022/04/06 00:07:39;;;;;;;13.63;10.83;;;12.20;99.90;;;;;;5052637;28;20449;-67
2022/04/06 00:10:07;;;;;;;13.57;11.63;;;12.10;99.90;;;;;;5051886;28;20424;-68
2022/04/06 00:12:37;;;;;;;16.80;10.87;;;12.20;99.90;;;;;;5051053;28;20428;-68
2022/04/06 00:15:09;;;;;;;15.93;9.93;;;12.30;99.90;;;;;;5051956;28;20810;-68
2022/04/06 00:17:35;;;;;;;16.83;10.80;;;12.20;99.90;;;;;;5045649;28;20433;-69
2022/04/06 00:20:01;;;;;;;20.47;12.30;;;12.20;99.90;;;;;;5049705;28;20447;-68
2022/04/06 00:22:28;;;;;;;17.03;10.37;;;12.20;99.90;;;;;;5049332;28;20434;-75
2022/04/06 00:24:54;;;;;;;15.07;10.70;;;12.20;99.90;;;;;;5049125;28;21200;-70
2022/04/06 00:27:19;;;;;;;13.80;9.73;;;12.10;99.90;;;;;;5030882;28;20634;-68
2022/04/06 00:29:45;;;;;;;17.63;10.07;;;12.20;99.90;;;;;;5048641;28;20203;-68
2022/04/06 00:32:11;;;;;;;16.67;10.87;;;12.20;99.90;;;;;;5031557;28;20174;-68
2022/04/06 00:37:21;;;;;;;10.97;9.20;;;12.20;99.90;;;;;;5048576;28;20462;-68
2022/04/06 00:39:47;;;;;;;14.70;10.20;;;12.20;99.90;;;;;;5047336;28;20459;-68
2022/04/06 00:42:13;;;;;;;12.00;9.97;;;12.30;99.90;;;;;;5048008;28;20187;-67
2022/04/06 00:44:39;;;;;;;13.13;9.57;;;12.20;99.90;;;;;;5048676;28;20434;-68
2022/04/06 00:47:06;;;;;;;18.93;9.30;;;12.20;99.90;;;;;;5050514;28;20661;-70
2022/04/06 00:49:33;;;;;;;10.33;9.00;;;12.20;99.90;;;;;;5049234;28;20503;-68
2022/04/06 00:52:01;;;;;;;12.07;8.97;;;12.20;99.90;;;;;;5050224;28;20418;-68
2022/04/06 00:54:28;;;;;;;13.37;8.73;;;12.20;99.90;;;;;;5050035;28;20420;-76
2022/04/06 00:56:54;;;;;;;15.00;8.67;;;12.30;99.90;;;;;;5050436;28;20427;-68
2022/04/06 00:59:20;;;;;;;15.70;8.93;;;12.10;99.90;;;;;;5050062;28;20785;-68
2022/04/06 01:01:48;;;;;;;10.70;9.10;;;12.10;99.90;;;;;;5049620;28;20227;-68
2022/04/06 01:04:15;;;;;;;11.77;9.20;;;12.00;99.90;;;;;;5048398;28;20439;-68
2022/04/06 01:06:41;;;;;;;11.17;8.90;;;12.10;99.90;;;;;;5049307;28;20832;-68
2022/04/06 01:09:07;;;;;;;9.50;8.50;;;12.00;99.90;;;;;;5050591;28;20506;-68
2022/04/06 01:11:34;;;;;;;12.10;8.53;;;12.00;99.90;;;;;;5050675;28;20485;-68
2022/04/06 01:14:02;;;;;;;12.40;8.93;;;12.00;99.90;;;;;;5053884;28;20417;-71
2022/04/06 01:16:28;;;;;;;15.33;9.30;;;12.00;99.90;;;;;;5054976;28;20427;-75
2022/04/06 01:18:54;;;;;;;10.53;8.73;;;11.90;99.90;;;;;;5055112;28;20416;-67
2022/04/06 01:21:21;;;;;;;11.10;8.97;;;11.90;99.90;;;;;;5055125;28;20474;-67
2022/04/06 01:23:47;;;;;;;11.27;9.10;;;12.00;99.90;;;;;;5053643;28;20196;-68
2022/04/06 01:26:13;;;;;;;12.60;8.73;;;12.00;99.90;;;;;;5055145;28;20416;-68
2022/04/06 01:28:40;;;;;;;12.70;8.60;;;12.00;99.90;;;;;;5054369;28;20435;-68
2022/04/06 01:31:07;;;;;;;14.20;9.90;;;12.00;99.90;;;;;;5055308;28;20418;-67
2022/04/06 01:33:32;;;;;;;12.10;9.13;;;12.00;99.90;;;;;;5053081;28;20415;-68
2022/04/06 01:35:59;;;;;;;15.43;9.50;;;12.00;99.90;;;;;;5054746;28;20407;-67
2022/04/06 01:38:26;;;;;;;15.30;9.10;;;12.00;99.90;;;;;;5054680;28;20630;-68
2022/04/06 01:40:52;;;;;;;13.93;9.63;;;12.00;99.90;;;;;;5052043;28;20901;-68
2022/04/06 01:43:19;;;;;;;11.63;9.80;;;12.00;99.90;;;;;;5053346;28;20772;-68
2022/04/06 01:45:45;;;;;;;13.37;10.37;;;11.90;99.90;;;;;;5054057;28;20478;-68
2022/04/06 01:48:10;;;;;;;14.27;9.03;;;12.00;99.90;;;;;;5054483;28;20921;-68
2022/04/06 01:53:20;;;;;;;15.00;9.47;;;11.90;99.90;;;;;;5054764;28;20177;-67
2022/04/06 01:55:46;;;;;;;17.30;9.20;;;11.90;99.90;;;;;;5052898;28;20420;-68
2022/04/06 01:58:12;;;;;;;10.10;8.80;;;11.90;99.90;;;;;;5054498;28;20189;-68
2022/04/06 02:00:40;;;;;;;11.57;9.63;;;11.90;99.90;;;;;;5053674;28;20617;-68
2022/04/06 02:03:05;;;;;;;13.93;10.20;;;11.80;99.90;;;;;;5054094;28;20430;-67
2022/04/06 02:05:33;;;;;;;16.13;9.87;;;11.80;99.90;;;;;;5053613;28;20416;-76
2022/04/06 02:07:59;;;;;;;10.10;9.10;;;11.80;99.90;;;;;;5052859;28;20203;-67
2022/04/06 02:10:25;;;;;;;13.03;9.90;;;11.80;99.90;;;;;;5054077;28;20775;-67
2022/04/06 02:12:54;;;;;;;11.30;10.10;;;11.70;99.90;;;;;;5053606;28;20492;-67
2022/04/06 02:15:20;;;;;;;11.73;9.80;;;11.80;99.90;;;;;;5054034;28;20512;-67
2022/04/06 02:17:47;;;;;;;12.27;10.07;;;11.70;99.90;;;;;;5053442;28;20500;-68
2022/04/06 02:20:13;;;;;;;11.23;10.00;;;11.80;99.90;;;;;;5052293;28;20476;-68
2022/04/06 02:22:40;;;;;;;14.10;10.27;;;11.70;99.90;;;;;;5053176;28;20450;-68
2022/04/06 02:25:06;;;;;;;11.53;9.53;;;11.80;99.90;;;;;;5054041;28;20427;-67
2022/04/06 02:27:32;;;;;;;9.83;8.80;;;11.80;99.90;;;;;;5053578;28;20419;-76
2022/04/06 02:29:58;;;;;;;10.23;9.00;;;11.80;99.90;;;;;;5052545;28;20400;-67
2022/04/06 02:32:23;;;;;;;12.27;9.27;;;11.80;99.90;;;;;;5053904;28;20510;-67
2022/04/06 02:34:49;;;;;;;12.37;9.10;;;11.90;99.90;;;;;;5051795;28;20892;-67
2022/04/06 02:37:15;;;;;;;9.43;8.27;;;11.80;99.90;;;;;;5054103;28;20173;-67
2022/04/06 02:39:41;;;;;;;11.50;8.80;;;11.80;99.90;;;;;;5052791;28;20682;-68
2022/04/06 02:42:07;;;;;;;12.73;8.70;;;11.90;99.90;;;;;;5053815;28;20182;-67
2022/04/06 02:44:33;;;;;;;11.10;8.40;;;11.80;99.90;;;;;;5053159;28;20748;-76
2022/04/06 02:46:59;;;;;;;9.30;8.27;;;11.90;99.90;;;;;;5053099;28;20415;-67
2022/04/06 02:49:25;;;;;;;9.80;8.60;;;11.90;99.90;;;;;;5053232;28;20772;-67
2022/04/06 02:51:51;;;;;;;10.20;8.97;;;11.80;99.90;;;;;;5052381;28;20436;-67
2022/04/06 02:54:17;;;;;;;12.50;9.17;;;11.90;99.90;;;;;;5052384;28;20442;-67
2022/04/06 02:56:43;;;;;;;11.77;8.30;;;11.90;99.90;;;;;;5052677;28;20451;-68
2022/04/06 02:59:09;;;;;;;10.07;7.60;;;11.80;99.90;;;;;;5053607;28;20430;-67
2022/04/06 03:01:35;;;;;;;13.57;8.00;;;11.80;99.90;;;;;;5051437;28;20480;-76
2022/04/06 03:04:00;;;;;;;9.73;8.10;;;11.80;99.90;;;;;;5053222;28;20178;-67
2022/04/06 03:06:26;;;;;;;7.27;6.57;;;11.80;99.90;;;;;;5052962;28;20875;-67
2022/04/06 03:08:52;;;;;;;10.70;7.30;;;11.80;99.90;;;;;;5052284;28;20203;-68
2022/04/06 03:11:18;;;;;;;11.57;7.37;;;11.80;99.90;;;;;;5051553;28;20256;-68
2022/04/06 03:13:43;;;;;;;8.63;7.00;;;11.90;99.90;;;;;;5052325;28;20800;-67
2022/04/06 03:16:09;;;;;;;9.60;7.57;;;11.80;99.90;;;;;;5053421;28;20180;-67
2022/04/06 03:18:35;;;;;;;9.00;7.37;;;11.80;99.90;;;;;;5052282;28;20229;-76
2022/04/06 03:21:01;;;;;;;12.90;8.10;;;11.90;99.90;;;;;;5052588;28;20290;-67
2022/04/06 03:23:27;;;;;;;8.90;7.60;;;11.80;99.90;;;;;;5034986;28;20989;-67
2022/04/06 03:25:53;;;;;;;7.67;6.97;;;11.80;99.90;;;;;;5052052;28;20188;-68
2022/04/06 03:28:19;;;;;;;8.57;6.70;;;11.70;99.90;;;;;;5053047;28;20188;-67
2022/04/06 03:30:51;;;;;;;9.93;6.77;;;11.70;99.90;;;;;;5052084;28;20168;-67
2022/04/06 03:33:16;;;;;;;8.60;6.73;;;11.80;99.90;;;;;;5068116;28;20522;-67
2022/04/06 03:35:42;;;;;;;6.97;6.17;;;11.80;99.90;;;;;;5051053;28;20184;-68
2022/04/06 03:38:08;;;;;;;8.90;8.10;;;11.70;99.90;;;;;;5052299;28;20580;-67
2022/04/06 03:40:34;;;;;;;9.70;8.87;;;11.70;99.90;;;;;;5052287;28;20475;-76
2022/04/06 03:42:59;;;;;;;6.00;5.10;;;11.70;99.90;;;;;;5052091;28;20654;-67
2022/04/06 03:45:25;;;;;;;9.23;8.53;;;11.70;99.90;;;;;;5052153;28;20185;-67
2022/04/06 03:47:51;;;;;;;8.70;6.23;;;11.70;99.90;;;;;;5051153;28;20633;-68
2022/04/06 03:50:17;;;;;;;6.83;5.60;;;11.60;99.90;;;;;;5051858;28;20418;-67
2022/04/06 03:52:43;;;;;;;10.60;9.70;;;11.60;99.90;;;;;;5050203;28;20431;-68
2022/04/06 03:55:10;;;;;;;8.80;8.00;;;11.60;99.90;;;;;;5051634;28;20189;-66
2022/04/06 03:57:37;;;;;;;8.90;5.90;;;11.70;99.90;;;;;;5051727;28;20271;-73
2022/04/06 04:00:08;;;;;;;10.67;6.70;;;11.70;99.90;;;;;;5050401;28;20463;-66
2022/04/06 04:02:34;;;;;;;9.23;8.43;;;11.70;99.90;;;;;;5052212;28;20442;-66
2022/04/06 04:05:00;;;;;;;11.60;7.37;;;11.60;99.90;;;;;;5050685;28;20419;-65
2022/04/06 04:07:26;;;;;;;9.53;7.73;;;11.70;99.90;;;;;;5049094;28;20475;-66
2022/04/06 04:09:52;;;;;;;7.93;6.97;;;11.70;99.90;;;;;;5049764;28;20930;-65
2022/04/06 04:12:18;;;;;;;8.53;6.90;;;11.60;99.90;;;;;;5051289;28;20433;-66
2022/04/06 04:14:45;;;;;;;9.73;8.00;;;11.70;99.90;;;;;;5052012;28;20422;-66
2022/04/06 04:17:11;;;;;;;7.37;6.67;;;11.70;99.90;;;;;;5050846;28;20422;-65
2022/04/06 04:19:37;;;;;;;9.60;7.10;;;11.70;99.90;;;;;;5051557;28;20501;-73
2022/04/06 04:22:04;;;;;;;8.97;7.87;;;11.70;99.90;;;;;;5052394;28;20969;-65
2022/04/06 04:24:29;;;;;;;8.07;6.73;;;11.70;99.90;;;;;;5050994;28;20847;-65
2022/04/06 04:26:55;;;;;;;7.63;6.90;;;11.70;99.90;;;;;;5051899;28;20419;-66
2022/04/06 04:29:21;;;;;;;8.23;7.50;;;11.60;99.90;;;;;;5064339;28;20264;-66
2022/04/06 04:31:47;;;;;;;10.37;7.33;;;11.60;99.90;;;;;;5050286;28;20174;-66
2022/04/06 04:34:14;;;;;;;8.63;6.40;;;11.60;99.90;;;;;;5060883;28;20172;-65
2022/04/06 04:36:40;;;;;;;6.73;6.00;;;11.60;99.90;;;;;;5071627;28;20188;-73
2022/04/06 04:39:06;;;;;;;8.40;6.60;;;11.60;99.90;;;;;;5071618;28;20410;-65
2022/04/06 04:41:32;;;;;;;10.87;9.87;;;11.50;99.90;;;;;;5065233;28;20959;-65
2022/04/06 04:43:58;;;;;;;10.10;7.00;;;11.50;99.90;;;;;;5050792;28;20412;-65
2022/04/06 04:46:24;;;;;;;7.30;6.60;;;11.60;99.90;;;;;;5052356;28;20532;-65
2022/04/06 04:48:49;;;;;;;8.70;7.80;;;11.50;99.90;;;;;;5055383;28;20504;-65
2022/04/06 04:51:15;;;;;;;6.70;5.90;;;11.60;99.90;;;;;;5055793;28;20906;-65
2022/04/06 04:53:41;;;;;;;6.27;5.67;;;11.60;99.90;;;;;;5054829;28;20185;-73
2022/04/06 04:56:08;;;;;;;8.70;6.33;;;11.60;99.90;;;;;;5054681;28;20321;-66
2022/04/06 04:58:33;;;;;;;10.60;7.47;;;11.60;99.90;;;;;;5055365;28;20423;-66
2022/04/06 05:00:59;;;;;;;12.03;8.03;;;11.60;99.90;;;;;;5054702;28;20744;-65
2022/04/06 05:03:25;;;;;;;7.57;6.77;;;11.50;99.90;;;;;;5055880;28;20179;-65
2022/04/06 05:05:53;;;;;;;7.50;6.03;;;11.50;99.90;;;;;;5054512;28;20184;-66
2022/04/06 05:08:22;;;;;;;8.90;5.77;;;11.60;99.90;;;;;;5055497;28;20229;-65
2022/04/06 05:10:48;;;;;;;6.70;5.60;;;11.60;99.90;;;;;;5054406;28;20443;-66
2022/04/06 05:13:17;;;;;;;7.97;7.20;;;11.60;99.90;;;;;;5054832;28;20427;-66
2022/04/06 05:15:44;;;;;;;5.73;5.23;;;11.70;99.90;;;;;;5054700;28;20415;-74
2022/04/06 05:18:10;;;;;;;6.47;5.87;;;11.60;99.90;;;;;;5055548;28;20427;-65
2022/04/06 05:20:36;;;;;;;9.90;6.87;;;11.50;99.90;;;;;;5055318;28;20494;-65
2022/04/06 05:23:02;;;;;;;10.60;6.17;;;11.50;99.90;;;;;;5054513;28;20354;-65
2022/04/06 05:25:27;;;;;;;6.83;4.00;;;11.50;99.90;;;;;;5055187;28;20642;-65
2022/04/06 05:27:55;;;;;;;6.90;4.83;;;11.60;99.90;;;;;;5053806;28;20203;-66
2022/04/06 05:30:24;;;;;;;5.63;5.10;;;11.60;99.90;;;;;;5054801;28;20263;-65
2022/04/06 05:32:53;;;;;;;8.20;5.60;;;11.50;99.90;;;;;;5041536;28;20820;-65
2022/04/06 05:35:20;;;;;;;6.10;5.10;;;11.50;99.90;;;;;;5054351;28;20424;-65
2022/04/06 05:37:46;;;;;;;7.10;6.50;;;11.50;99.90;;;;;;5054142;28;20416;-66
2022/04/06 05:40:15;;;;;;;8.90;4.40;;;11.50;99.90;;;;;;5054821;28;20542;-66
2022/04/06 05:42:41;;;;;;;5.40;3.73;;;11.50;99.90;;;;;;5054998;28;20423;-66
2022/04/06 05:45:07;;;;;;;5.43;4.77;;;11.60;99.90;;;;;;5054712;28;20904;-65
2022/04/06 05:47:34;;;;;;;6.70;4.40;;;11.50;99.90;;;;;;5054896;28;20756;-65
2022/04/06 05:50:00;;;;;;;9.20;5.63;;;11.50;99.90;;;;;;5054304;28;20416;-65
2022/04/06 05:52:27;;;;;;;7.57;5.40;;;11.40;99.90;;;;;;5054396;28;20540;-65
2022/04/06 05:54:52;;;;;;;7.73;5.80;;;11.40;99.90;;;;;;5053818;28;20416;-66
2022/04/06 05:57:21;;;;;;;6.13;4.50;;;11.40;99.90;;;;;;5054061;28;20410;-65
2022/04/06 05:59:47;;;;;;;7.30;4.47;;;11.40;99.90;;;;;;5052328;28;20666;-66
2022/04/06 06:02:13;;;;;;;8.67;4.43;;;11.40;99.90;;;;;;5053692;28;20443;-65
2022/04/06 06:04:39;;;;;;;6.90;5.30;;;11.40;99.90;;;;;;5053796;28;20176;-66
2022/04/06 06:07:06;;;;;;;5.40;5.00;;;11.40;99.90;;;;;;5053609;28;20465;-65
2022/04/06 06:09:32;;;;;;;5.67;4.63;;;11.50;99.90;;;;;;5054327;28;20413;-65
2022/04/06 06:11:58;;;;;;;5.07;4.57;;;11.50;99.90;;;;;;5052837;28;20510;-66
2022/04/06 06:14:24;;;;;;;5.97;5.43;;;11.30;99.90;;;;;;5053884;28;20465;-66
2022/04/06 06:16:50;;;;;;;6.10;5.13;;;11.30;99.90;;;;;;5053358;28;20490;-66
2022/04/06 06:19:19;;;;;;;6.30;5.77;;;11.60;99.90;;;;;;5054166;28;20192;-66
2022/04/06 06:21:45;;;;;;;6.77;5.80;;;11.60;99.90;;;;;;5053277;28;20459;-77
2022/04/06 06:24:11;;;;;;;8.20;6.20;;;11.60;99.90;;;;;;5054342;28;20449;-66
2022/04/06 06:26:39;;;;;;;5.57;5.03;;;11.50;99.90;;;;;;5054110;28;20420;-65
2022/04/06 06:29:05;;;;;;;7.57;5.30;;;11.50;99.90;;;;;;5052836;28;20499;-65
2022/04/06 06:31:31;;;;;;;5.70;5.20;;;11.60;99.90;;;;;;5053317;28;20424;-65
2022/04/06 06:34:01;;;;;;;7.80;5.30;;;11.70;99.90;;;;;;5061782;28;20981;-66
2022/04/06 06:36:27;;;;;;;7.37;5.37;;;11.50;99.90;;;;;;5037780;28;20425;-66
2022/04/06 06:38:54;;;;;;;6.37;5.77;;;11.50;99.90;;;;;;5067435;28;20432;-66
2022/04/06 06:41:20;;;;;;;6.37;5.87;;;11.50;99.90;;;;;;5074390;28;20475;-66
2022/04/06 06:43:48;;;;;;;9.97;7.60;;;11.60;99.90;;;;;;5073219;28;20421;-74
2022/04/06 06:46:19;;;;;;;8.83;4.80;;;11.70;99.90;;;;;;5054994;28;20576;-67
2022/04/06 06:48:45;;;;;;;5.10;4.50;;;11.60;99.90;;;;;;5053759;28;20473;-67
2022/04/06 06:51:11;;;;;;;6.00;5.30;;;11.60;99.90;;;;;;5052852;28;20423;-67
2022/04/06 06:53:37;;;;;;;10.07;7.30;;;11.50;99.90;;;;;;5053457;28;20421;-67
2022/04/06 06:56:03;;;;;;;6.50;5.87;;;11.60;99.90;;;;;;5052684;28;20761;-67
2022/04/06 06:58:28;;;;;;;7.97;6.70;;;11.70;99.90;;;;;;5053464;28;20268;-67
2022/04/06 07:00:54;;;;;;;7.60;4.40;;;11.60;99.90;;;;;;5052063;28;20551;-68
2022/04/06 07:03:20;;;;;;;8.07;4.90;;;11.60;99.90;;;;;;5050880;28;20176;-68
2022/04/06 07:05:47;;;;;;;7.13;4.80;;;11.60;99.90;;;;;;5051709;28;20580;-78
2022/04/06 07:08:13;;;;;;;6.00;4.80;;;11.60;99.90;;;;;;5053617;28;20184;-68
2022/04/06 07:10:43;;;;;;;8.30;6.50;;;11.50;99.90;;;;;;5052400;28;20994;-67
2022/04/06 07:13:11;;;;;;;5.20;4.80;;;11.50;99.90;;;;;;5052850;28;20426;-67
2022/04/06 07:15:37;;;;;;;6.17;5.57;;;11.50;99.90;;;;;;5052867;28;20489;-67
2022/04/06 07:18:03;;;;;;;11.10;6.87;;;11.60;99.90;;;;;;5052653;28;20527;-67
2022/04/06 07:20:31;;;;;;;6.20;4.70;;;11.50;99.90;;;;;;5061852;28;20224;-67
2022/04/06 07:22:57;;;;;;;9.77;5.93;;;11.50;99.90;;;;;;5058605;28;20431;-67
2022/04/06 07:25:23;;;;;;;8.10;6.30;;;11.40;99.90;;;;;;5067300;28;20512;-67
2022/04/06 07:27:49;;;;;;;7.13;5.10;;;11.40;99.90;;;;;;5072621;28;20924;-67
2022/04/06 07:30:15;;;;;;;6.70;5.87;;;11.50;99.90;;;;;;5054156;28;20440;-67
2022/04/06 07:32:41;;;;;;;5.83;4.70;;;11.50;99.90;;;;;;5051720;28;20182;-67
2022/04/06 07:35:08;;;;;;;6.97;5.50;;;11.50;99.90;;;;;;5050630;28;20481;-67
2022/04/06 07:37:43;;;;;;;5.13;4.63;;;11.50;99.90;;;;;;5052949;28;20427;-67
2022/04/06 07:40:12;;;;;;;6.50;4.93;;;11.60;99.90;;;;;;5052045;28;20453;-67
2022/04/06 07:42:39;;;;;;;5.90;4.73;;;11.50;99.90;;;;;;5051353;28;20529;-66
2022/04/06 07:45:07;;;;;;;6.63;5.77;;;11.50;99.90;;;;;;5050592;28;20425;-67
2022/04/06 07:47:34;;;;;;;10.40;6.77;;;11.50;99.90;;;;;;5053992;28;20515;-67
2022/04/06 07:50:03;;;;;;;9.97;7.50;;;11.40;99.90;;;;;;5052149;28;20409;-67
2022/04/06 07:52:30;;;;;;;9.53;7.10;;;11.40;99.90;;;;;;5056714;28;20949;-67
2022/04/06 07:54:56;;;;;;;7.07;6.37;;;11.40;99.90;;;;;;5067047;28;20437;-67
2022/04/06 07:57:24;;;;;;;7.30;6.03;;;11.50;99.90;;;;;;5072419;28;20412;-67
2022/04/06 07:59:51;;;;;;;6.73;6.07;;;11.50;99.90;;;;;;5071824;28;20203;-74
2022/04/06 08:02:16;;;;;;;6.53;5.93;;;11.50;99.90;;;;;;5069021;28;20421;-67
2022/04/06 08:04:42;;;;;;;7.77;5.93;;;11.00;99.90;;;;;;5051319;28;20465;-66
2022/04/06 08:07:08;;;;;;;8.40;7.53;;;11.50;99.90;;;;;;5052061;28;20181;-67
2022/04/06 08:09:34;;;;;;;10.53;7.87;;;11.50;99.90;;;;;;5050842;28;20743;-67
2022/04/06 08:12:01;;;;;;;5.80;5.00;;;11.40;99.90;;;;;;5052990;28;20234;-67
2022/04/06 08:14:28;;;;;;;6.03;5.50;;;11.50;99.90;;;;;;5065667;28;20662;-67
2022/04/06 08:16:55;;;;;;;9.80;5.60;;;11.50;99.90;;;;;;5060050;28;20480;-74
2022/04/06 08:19:25;;;;;;;8.90;7.80;;;11.50;99.90;;;;;;5020293;28;20417;-68
2022/04/06 08:21:52;;;;;;;8.23;6.77;;;11.50;99.90;;;;;;5063272;28;20604;-73
2022/04/06 08:24:18;;;;;;;8.47;7.70;;;11.50;99.90;;;;;;5071483;28;20422;-66
2022/04/06 08:26:43;;;;;;;6.30;5.70;;;11.50;99.90;;;;;;5062550;28;20418;-66
2022/04/06 08:29:09;;;;;;;7.40;5.30;;;11.40;99.90;;;;;;5031401;28;20180;-64
2022/04/06 08:31:35;;;;;;;5.87;5.27;;;11.30;99.90;;;;;;5038105;28;20242;-67
2022/04/06 08:34:03;;;;;;;6.50;6.10;;;11.40;99.90;;;;;;5064316;28;20416;-67
2022/04/06 08:36:29;;;;;;;6.40;5.67;;;11.50;99.90;;;;;;5052088;28;20505;-66
2022/04/06 08:38:55;;;;;;;8.50;7.10;;;11.40;99.90;;;;;;5062197;28;20875;-66
2022/04/06 08:41:26;;;;;;;6.07;5.47;;;11.40;99.90;;;;;;5070793;28;20243;-66
2022/04/06 08:43:53;;;;;;;5.87;5.37;;;11.50;99.90;;;;;;5071174;28;20433;-66
2022/04/06 08:46:20;;;;;;;6.33;5.83;;;11.20;99.90;;;;;;5072317;28;20407;-66
2022/04/06 08:48:48;;;;;;;6.43;5.93;;;11.50;99.90;;;;;;5072075;28;20412;-66
2022/04/06 08:51:16;;;;;;;7.83;7.33;;;11.40;99.90;;;;;;5059767;28;20431;-66
2022/04/06 08:53:46;;;;;;;7.67;7.07;;;11.40;99.90;;;;;;5052116;28;20408;-69
2022/04/06 08:56:13;;;;;;;6.43;6.03;;;11.40;99.90;;;;;;5050877;28;20958;-66
2022/04/06 08:58:40;;;;;;;6.57;6.07;;;11.50;99.90;;;;;;5055559;28;20780;-68
2022/04/06 09:01:06;;;;;;;8.43;7.73;;;11.50;99.90;;;;;;5060143;28;20460;-67
2022/04/06 09:03:35;;;;;;;5.80;5.40;;;11.40;99.90;;;;;;5070068;28;20498;-66
2022/04/06 09:06:07;;;;;;;5.50;5.10;;;11.40;99.90;;;;;;5051312;28;20757;-67
2022/04/06 09:08:39;;;;;;;7.20;6.80;;;11.30;99.90;;;;;;5051705;28;20425;-66
2022/04/06 09:11:12;;;;;;;5.90;5.40;;;11.30;99.90;;;;;;5051250;28;20419;-66
2022/04/06 09:13:39;;;;;;;6.67;6.07;;;11.30;99.90;;;;;;5052013;28;20749;-66
2022/04/06 09:16:08;;;;;;;6.40;6.00;;;11.40;99.90;;;;;;5050575;28;20434;-66
2022/04/06 09:18:35;;;;;;;5.50;5.10;;;11.50;99.90;;;;;;5050340;28;20415;-67
2022/04/06 09:21:02;;;;;;;4.80;4.50;;;11.50;99.90;;;;;;5050395;28;20605;-67
2022/04/06 09:23:32;;;;;;;4.80;4.40;;;11.30;99.90;;;;;;5052435;28;20808;-66
2022/04/06 09:26:06;;;;;;;5.80;5.40;;;11.60;99.90;;;;;;5058068;28;20546;-74
2022/04/06 09:28:32;;;;;;;6.40;5.70;;;11.60;99.90;;;;;;5047421;28;20427;-66
2022/04/06 09:30:58;;;;;;;5.80;4.30;;;11.70;99.90;;;;;;5063900;28;20937;-74
2022/04/06 09:33:28;;;;;;;4.60;4.10;;;11.70;99.40;;;;;;5069291;28;20428;-66
2022/04/06 09:35:55;;;;;;;5.63;3.57;;;11.70;98.90;;;;;;5075536;28;20756;-65
2022/04/06 09:38:23;;;;;;;5.57;4.20;;;11.70;98.30;;;;;;5042589;28;20423;-65
2022/04/06 09:41:14;;;;;;;4.93;4.50;;;11.80;98.40;;;;;;5054786;28;20489;-65
2022/04/06 09:43:40;;;;;;;5.87;3.90;;;11.80;98.30;;;;;;5055923;28;20427;-65
2022/04/06 09:49:24;;;;;;;5.83;4.00;;;12.00;97.90;;;;;;5051844;28;20196;-65
2022/04/06 09:51:51;;;;;;;4.17;3.87;;;12.00;96.80;;;;;;5051194;28;20420;-65
2022/04/06 09:54:18;;;;;;;4.37;3.93;;;12.10;97.10;;;;;;5052830;28;20777;-65
2022/04/06 09:56:44;;;;;;;4.23;3.83;;;12.10;96.50;;;;;;5051464;28;20484;-65
2022/04/06 09:59:12;;;;;;;4.47;4.07;;;12.30;96.80;;;;;;5052463;28;20420;-65
2022/04/06 10:02:09;;;;;;;6.00;5.60;;;12.30;96.20;;;;;;5053033;28;20460;-66
2022/04/06 10:04:35;;;;;;;5.40;5.10;;;12.40;96.70;;;;;;5052478;28;20435;-65
2022/04/06 10:07:01;;;;;;;3.60;3.40;;;12.50;96.50;;;;;;5051409;28;20420;-65
2022/04/06 10:09:27;;;;;;;5.73;5.30;;;12.40;96.10;;;;;;5054924;28;20260;-65
2022/04/06 10:11:57;;;;;;;4.27;3.90;;;12.40;95.90;;;;;;5051720;28;20645;-65
2022/04/06 10:14:24;;;;;;;5.00;3.97;;;12.30;95.40;;;;;;5055638;28;20469;-64
2022/04/06 10:16:50;;;;;;;4.03;3.67;;;12.30;95.90;;;;;;5052749;28;20454;-68
2022/04/06 10:19:19;;;;;;;4.73;4.13;;;12.30;95.90;;;;;;5052634;28;20517;-65
2022/04/06 10:22:01;;;;;;;4.07;3.60;;;12.30;96.00;;;;;;5053258;28;20472;-65
2022/04/06 10:24:59;;;;;;;4.80;4.50;;;12.20;96.00;;;;;;5043730;28;20427;-66
2022/04/06 10:27:28;;;;;;;3.40;3.17;;;12.10;96.20;;;;;;5041704;28;20519;-68
2022/04/06 10:30:06;;;;;;;4.03;3.70;;;12.20;96.50;;;;;;5054510;28;20832;-67
2022/04/06 10:32:38;;;;;;;4.37;3.97;;;12.10;96.20;;;;;;5050368;28;20423;-67
2022/04/06 10:35:23;;;;;;;5.10;3.90;;;12.00;96.60;;;;;;5051924;28;20824;-65
2022/04/06 10:38:00;;;;;;;3.90;3.60;;;12.00;96.80;;;;;;5053578;28;20478;-65
2022/04/06 10:40:31;;;;;;;5.83;4.20;;;12.00;96.60;;;;;;5053516;28;20485;-65
2022/04/06 10:42:57;;;;;;;4.43;4.03;;;12.10;97.70;;;;;;5052510;28;20423;-69
2022/04/06 10:45:29;;;;;;;4.63;4.30;;;12.00;97.10;;;;;;5053421;28;20420;-65
2022/04/06 10:48:13;;;;;;;6.33;5.80;;;12.10;96.90;;;;;;5051708;28;20424;-65
2022/04/06 10:50:44;;;;;;;5.23;4.93;;;12.10;97.10;;;;;;5051549;28;20414;-65
2022/04/06 10:53:22;;;;;;;6.23;5.33;;;12.10;97.10;;;;;;5047708;28;20444;-65
2022/04/06 10:56:12;;;;;;;5.43;4.97;;;12.20;97.00;;;;;;5053449;28;20421;-66
2022/04/06 10:58:55;;;;;;;5.50;5.00;;;12.20;96.80;;;;;;5051681;28;20401;-65
2022/04/06 11:01:29;;;;;;;5.70;5.20;;;12.20;96.50;;;;;;5051675;28;20538;-65
2022/04/06 11:04:00;;;;;;;7.33;4.60;;;12.20;96.40;;;;;;5053127;28;20514;-66
2022/04/06 11:06:41;;;;;;;6.03;5.63;;;12.20;96.40;;;;;;5052537;28;20477;-65
2022/04/06 11:12:17;;;;;;;4.97;4.63;;;12.10;96.10;;;;;;5051157;28;20481;-67
2022/04/06 11:14:44;;;;;;;5.73;5.20;;;12.00;96.60;;;;;;5045935;28;20522;-66
2022/04/06 11:17:32;;;;;;;5.07;4.67;;;12.10;96.70;;;;;;5052327;28;20821;-66
2022/04/06 11:19:59;;;;;;;5.40;4.90;;;12.20;96.90;;;;;;5050196;28;20794;-72
2022/04/06 11:22:25;;;;;;;4.70;4.40;;;12.10;97.10;;;;;;5053529;28;20407;-65
2022/04/06 11:24:51;;;;;;;5.00;4.63;;;12.10;97.10;;;;;;5052037;28;20461;-66
2022/04/06 11:27:34;;;;;;;5.43;4.93;;;12.10;97.40;;;;;;5051987;28;20178;-66
2022/04/06 11:30:00;;;;;;;6.73;4.17;;;12.10;97.60;;;;;;5052318;28;20457;-71
2022/04/06 11:32:26;;;;;;;5.90;5.30;;;12.20;97.60;;;;;;5053189;28;20478;-66
2022/04/06 11:35:00;;;;;;;5.00;4.60;;;12.20;98.00;;;;;;5053110;28;20412;-66
2022/04/06 11:37:26;;;;;;;5.30;4.90;;;12.20;98.00;;;;;;5051849;28;20174;-66
2022/04/06 11:39:59;;;;;;;5.53;4.97;;;12.20;98.40;;;;;;5053039;28;20516;-66
2022/04/06 11:42:26;;;;;;;6.23;5.73;;;12.20;99.20;;;;;;5053264;28;20447;-66
2022/04/06 11:44:56;;;;;;;5.70;5.20;;;12.20;99.30;;;;;;5051410;28;20404;-66
2022/04/06 11:47:29;;;;;;;5.33;4.90;;;12.30;99.50;;;;;;5051927;28;20428;-66
2022/04/06 11:49:55;;;;;;;6.77;4.77;;;12.30;99.20;;;;;;5052946;28;20434;-66
2022/04/06 11:52:21;;;;;;;7.27;6.57;;;12.30;99.10;;;;;;5052340;28;20508;-66
2022/04/06 11:54:56;;;;;;;7.10;6.60;;;12.30;99.20;;;;;;5052554;28;20179;-66
2022/04/06 11:57:37;;;;;;;6.27;5.87;;;12.30;99.20;;;;;;5051997;28;20470;-65
2022/04/06 12:00:05;;;;;;;6.50;6.10;;;12.30;99.70;;;;;;5050501;28;20467;-65
2022/04/06 12:02:51;;;;;;;6.67;6.07;;;12.30;99.40;;;;;;5052759;28;20748;-65
2022/04/06 12:05:18;;;;;;;8.60;6.23;;;12.30;99.30;;;;;;5050299;28;20443;-65
2022/04/06 12:07:45;;;;;;;6.33;5.67;;;12.20;99.90;;;;;;5051038;28;20424;-65
2022/04/06 12:10:11;;;;;;;6.60;6.10;;;12.30;99.90;;;;;;5051365;28;20496;-65
2022/04/06 12:12:38;;;;;;;7.80;6.17;;;12.30;99.90;;;;;;5052091;28;20844;-64
2022/04/06 12:15:04;;;;;;;5.80;5.37;;;12.30;99.90;;;;;;5051960;28;20420;-65
2022/04/06 12:17:33;;;;;;;7.40;5.60;;;12.30;99.90;;;;;;5052633;28;20739;-65
2022/04/06 12:19:59;;;;;;;5.93;5.30;;;12.30;99.90;;;;;;5052538;28;20809;-65
2022/04/06 12:22:26;;;;;;;6.53;5.93;;;12.30;99.90;;;;;;5050277;28;20960;-66
2022/04/06 12:24:52;;;;;;;6.77;6.10;;;12.30;99.90;;;;;;5052297;28;20437;-66
2022/04/06 12:27:29;;;;;;;6.03;5.40;;;12.30;99.90;;;;;;5051800;28;20409;-67
2022/04/06 12:30:07;;;;;;;6.77;6.20;;;12.50;99.90;;;;;;5052367;28;20407;-67
2022/04/06 12:32:52;;;;;;;6.40;5.20;;;12.40;99.90;;;;;;5051834;28;20437;-66
2022/04/06 12:35:24;;;;;;;5.43;4.90;;;12.20;99.90;;;;;;5051451;28;20392;-67
2022/04/06 12:37:51;;;;;;;7.07;6.50;;;12.20;99.90;;;;;;5051090;28;20864;-67
2022/04/06 12:40:26;;;;;;;6.90;6.30;;;12.20;99.90;;;;;;5051357;28;20479;-66
2022/04/06 12:42:53;;;;;;;8.10;7.57;;;12.10;99.90;;;;;;5052331;28;20423;-67
2022/04/06 12:45:19;;;;;;;7.50;6.90;;;12.10;99.90;;;;;;5050398;28;20490;-67
2022/04/06 12:47:45;;;;;;;6.37;5.87;;;12.10;99.90;;;;;;5052484;28;20424;-67
2022/04/06 12:50:19;;;;;;;6.87;6.23;;;12.10;99.90;;;;;;5051575;28;20424;-67
2022/04/06 12:53:03;;;;;;;7.07;6.37;;;12.00;99.90;;;;;;5051859;28;20435;-67
2022/04/06 12:55:29;;;;;;;9.40;6.40;;;12.00;99.90;;;;;;5052003;28;20404;-67
2022/04/06 12:58:13;;;;;;;9.00;8.30;;;11.90;99.90;;;;;;5051092;28;20412;-66